Aviation Digital Data Service (ADDS)

Output produced by METARs form (1447 UTC 22 April 2021)
found at http://www.aviationweather.gov/metar/data/
 
VTBD 221430Z 20006KT 9999 FEW040 30/24 Q1008 NOSIG
VTBD 221400Z 21009KT 9999 FEW040 31/24 Q1007 NOSIG
VTBD 221330Z 20008KT 9999 FEW040 31/24 Q1007 NOSIG
VTBD 221300Z 19008KT 9999 FEW040 31/25 Q1006 NOSIG
VTBD 221230Z 20009KT 9999 FEW040 31/26 Q1006 NOSIG
VTBD 221200Z 20010KT 9999 FEW040 31/26 Q1006 NOSIG
VTBD 221130Z 20010KT 9999 FEW040 32/26 Q1005 NOSIG
VTBD 221100Z 18010KT 9999 FEW040 33/26 Q1005 NOSIG
VTBD 221030Z 21008KT 9999 FEW040 34/25 Q1004 NOSIG
VTBD 221000Z 24004KT 190V280 9999 SCT040 35/23 Q1004 NOSIG
VTBD 220930Z 21004KT 130V290 9999 FEW030TCU SCT040 35/23 Q1004 NOSIG
VTBD 220900Z 27006KT 220V340 9999 SCT040 35/23 Q1005 NOSIG
VTBD 220830Z 28008KT 240V320 9999 SCT040 35/23 Q1004 NOSIG
VTBD 220800Z 27006KT 220V350 9999 SCT040 36/24 Q1005 NOSIG
VTBD 220730Z 26005KT 220V300 9999 SCT035 35/24 Q1006 NOSIG
VTBD 220700Z 24005KT 160V290 9999 FEW020 35/24 Q1007 NOSIG
VTBD 220630Z VRB05KT 9999 FEW020 35/24 Q1007 NOSIG
VTBD 220600Z 25007KT 190V290 9999 FEW020 34/24 Q1008 NOSIG
VTBD 220530Z 26005KT 160V290 9999 FEW020 34/25 Q1009 NOSIG
VTBD 220500Z 26006KT 210V310 9999 FEW020 34/25 Q1009 NOSIG
VTBD 220430Z 22006KT 180V260 9999 FEW020 33/24 Q1010 NOSIG
VTBD 220400Z 24007KT 200V270 9999 FEW020 33/25 Q1010 NOSIG
VTBD 220330Z 21008KT 180V250 9999 FEW020 33/24 Q1010 NOSIG
VTBD 220300Z 22006KT 160V270 9999 FEW020 33/25 Q1010 NOSIG
VTBD 220230Z 22006KT 180V260 9999 FEW020 33/24 Q1010 NOSIG
VTBD 220200Z 21004KT 170V250 9999 FEW020 32/25 Q1011 NOSIG
VTBD 220130Z 23003KT 170V310 9999 FEW020 31/26 Q1010 NOSIG
VTBD 220100Z 00000KT 8000 FEW020 30/26 Q1010 NOSIG
VTBD 220030Z 00000KT 7000 FEW020 29/27 Q1010 NOSIG
VTBD 220000Z 05002KT 7000 FEW020 27/26 Q1009 NOSIG
VTBD 212330Z 00000KT 9000 FEW020 27/26 Q1009 NOSIG
VTBD 212300Z 00000KT 9999 FEW020 27/26 Q1009 NOSIG
VTBD 212230Z 07002KT 9999 FEW020 27/26 Q1008 NOSIG
VTBD 212200Z 06002KT 9999 FEW020 27/26 Q1008 NOSIG
VTBD 212130Z 00000KT 9999 FEW020 27/25 Q1007 NOSIG
VTBD 212100Z 00000KT 9999 FEW020 28/25 Q1007 NOSIG
VTBD 212030Z 00000KT 9999 FEW020 27/25 Q1007 NOSIG
VTBD 212000Z 02003KT 9999 FEW020 27/25 Q1007 NOSIG
VTBD 211930Z 00000KT 9999 FEW020 28/25 Q1008 NOSIG
VTBD 211900Z 00000KT CAVOK 28/25 Q1008 NOSIG
VTBD 211830Z 00000KT CAVOK 28/25 Q1008 NOSIG
VTBD 211800Z 18001KT CAVOK 28/25 Q1008 NOSIG
VTBD 211730Z 00000KT CAVOK 28/25 Q1009 NOSIG
VTBD 211700Z 00000KT CAVOK 28/25 Q1009 NOSIG
VTBD 211630Z 00000KT CAVOK 28/25 Q1010 NOSIG
VTBD 211600Z 00000KT CAVOK 29/25 Q1010 NOSIG
VTBD 211530Z 20003KT CAVOK 29/24 Q1010 NOSIG
VTBD 211500Z 20005KT CAVOK 29/24 Q1009 NOSIG
TAF VTBD 221100Z 2212/2318 23008KT 9999 FEW020 
     BECMG 2218/2220 17005KT 
     BECMG 2302/2304 24008KT